createdAt,value
2023-09-24T00:00:55.477Z,13.74
2023-09-24T00:03:21.966Z,13.73
2023-09-24T00:05:48.596Z,13.72
2023-09-24T00:08:15.062Z,13.69
2023-09-24T00:10:41.611Z,13.67
2023-09-24T00:13:08.164Z,13.68
2023-09-24T00:15:35.940Z,13.65
2023-09-24T00:18:02.541Z,13.68
2023-09-24T00:20:29.167Z,13.65
2023-09-24T00:22:55.765Z,13.62
2023-09-24T00:25:22.255Z,13.63
2023-09-24T00:27:48.824Z,13.62
2023-09-24T00:30:15.305Z,13.62
2023-09-24T00:32:43.202Z,13.61
2023-09-24T00:35:09.788Z,13.62
2023-09-24T00:37:36.212Z,13.61
2023-09-24T00:40:02.655Z,13.53
2023-09-24T00:42:29.177Z,13.53
2023-09-24T00:44:55.705Z,13.66
2023-09-24T00:47:23.150Z,13.58
2023-09-24T00:49:51.254Z,13.58
2023-09-24T00:52:18.741Z,13.58
2023-09-24T00:54:45.493Z,13.66
2023-09-24T00:57:12.451Z,13.56
2023-09-24T00:59:39.008Z,13.80
2023-09-24T01:02:05.789Z,13.63
2023-09-24T01:04:32.737Z,13.49
2023-09-24T01:07:00.500Z,13.54
2023-09-24T01:09:26.952Z,13.55
2023-09-24T01:11:53.398Z,13.48
2023-09-24T01:14:20.016Z,13.50
2023-09-24T01:16:46.671Z,13.54
2023-09-24T01:19:13.265Z,13.52
2023-09-24T01:21:42.094Z,13.49
2023-09-24T01:24:10.435Z,13.46
2023-09-24T01:26:36.901Z,13.45
2023-09-24T01:29:03.364Z,13.49
2023-09-24T01:31:29.866Z,13.43
2023-09-24T01:33:56.740Z,13.41
2023-09-24T01:36:23.399Z,13.37
2023-09-24T01:38:49.935Z,13.35
2023-09-24T01:41:17.994Z,13.35
2023-09-24T01:43:44.574Z,13.30
2023-09-24T01:46:11.886Z,13.29
2023-09-24T01:48:38.403Z,13.28
2023-09-24T01:51:09.108Z,13.25
2023-09-24T01:53:35.628Z,13.24
2023-09-24T01:56:02.174Z,13.37
2023-09-24T01:58:30.026Z,13.29
2023-09-24T02:00:56.566Z,13.24
2023-09-24T02:03:23.041Z,13.18
2023-09-24T02:05:49.606Z,13.14
2023-09-24T02:08:16.124Z,13.10
2023-09-24T02:10:42.655Z,13.13
2023-09-24T02:13:09.100Z,13.06
2023-09-24T02:15:38.690Z,13.02
2023-09-24T02:18:05.685Z,13.04
2023-09-24T02:20:32.543Z,13.02
2023-09-24T02:23:03.949Z,13.07
2023-09-24T02:25:32.544Z,13.03
2023-09-24T02:28:00.435Z,12.99
2023-09-24T02:30:31.275Z,12.96
2023-09-24T02:33:02.736Z,12.86
2023-09-24T02:35:30.056Z,12.83
2023-09-24T02:37:56.740Z,12.82
2023-09-24T02:40:23.779Z,12.80
2023-09-24T02:42:52.676Z,12.84
2023-09-24T02:45:19.781Z,12.84
2023-09-24T02:47:47.598Z,12.83
2023-09-24T02:50:15.443Z,12.81
2023-09-24T02:52:43.060Z,12.80
2023-09-24T02:55:11.336Z,12.78
2023-09-24T02:57:38.156Z,12.81
2023-09-24T03:00:06.096Z,12.79
2023-09-24T03:02:32.592Z,12.94
2023-09-24T03:04:59.103Z,12.93
2023-09-24T03:07:27.020Z,12.85
2023-09-24T03:09:56.685Z,12.97
2023-09-24T03:12:23.232Z,12.86
2023-09-24T03:14:49.713Z,12.93
2023-09-24T03:17:16.172Z,12.96
2023-09-24T03:19:42.598Z,12.93
2023-09-24T03:22:09.167Z,12.94
2023-09-24T03:24:37.313Z,12.91
2023-09-24T03:27:03.771Z,12.97
2023-09-24T03:29:30.315Z,12.91
2023-09-24T03:31:56.840Z,12.91
2023-09-24T03:34:23.386Z,12.86
2023-09-24T03:36:49.785Z,12.88
2023-09-24T03:39:16.389Z,12.85
2023-09-24T03:41:44.355Z,12.82
2023-09-24T03:44:10.960Z,12.79
2023-09-24T03:46:37.476Z,12.75
2023-09-24T03:49:03.934Z,12.69
2023-09-24T03:51:30.329Z,12.75
2023-09-24T03:53:56.806Z,12.77
2023-09-24T03:56:23.362Z,12.75
2023-09-24T03:58:51.157Z,12.72
2023-09-24T04:01:17.734Z,12.74
2023-09-24T04:03:44.457Z,12.69
2023-09-24T04:06:11.556Z,12.68
2023-09-24T04:08:38.144Z,12.71
2023-09-24T04:11:06.978Z,12.67
2023-09-24T04:13:33.410Z,12.51
2023-09-24T04:16:09.208Z,12.53
2023-09-24T04:18:35.981Z,12.52
2023-09-24T04:21:02.632Z,12.52
2023-09-24T04:23:29.244Z,12.51
2023-09-24T04:25:55.682Z,12.54
2023-09-24T04:28:22.191Z,12.51
2023-09-24T04:30:48.622Z,12.46
2023-09-24T04:33:16.450Z,12.46
2023-09-24T04:35:43.072Z,12.41
2023-09-24T04:38:09.518Z,12.45
2023-09-24T04:40:36.115Z,12.45
2023-09-24T04:43:03.167Z,12.47
2023-09-24T04:45:29.597Z,12.49
2023-09-24T04:47:56.144Z,12.48
2023-09-24T04:50:24.604Z,12.38
2023-09-24T04:52:51.256Z,12.43
2023-09-24T04:55:18.035Z,12.45
2023-09-24T04:57:53.484Z,12.32
2023-09-24T05:00:20.120Z,12.38
2023-09-24T05:02:47.076Z,12.39
2023-09-24T05:05:15.906Z,12.40
2023-09-24T05:07:44.123Z,12.38
2023-09-24T05:10:10.994Z,12.33
2023-09-24T05:12:37.547Z,12.41
2023-09-24T05:15:05.464Z,12.37
2023-09-24T05:17:32.182Z,12.34
2023-09-24T05:19:58.763Z,12.41
2023-09-24T05:22:25.554Z,12.40
2023-09-24T05:24:53.355Z,12.45
2023-09-24T05:27:19.857Z,12.43
2023-09-24T05:29:46.946Z,12.38
2023-09-24T05:32:13.713Z,12.50
2023-09-24T05:34:40.111Z,12.56
2023-09-24T05:37:06.645Z,12.58
2023-09-24T05:39:33.048Z,12.67
2023-09-24T05:42:00.926Z,12.69
2023-09-24T05:44:27.341Z,12.75
2023-09-24T05:46:53.819Z,12.84
2023-09-24T05:49:20.190Z,12.81
2023-09-24T05:51:47.350Z,12.97
2023-09-24T05:54:13.822Z,12.98
2023-09-24T05:56:40.412Z,13.03
2023-09-24T05:59:08.577Z,13.18
2023-09-24T06:01:35.180Z,13.41
2023-09-24T06:04:01.737Z,13.64
2023-09-24T06:06:28.408Z,13.97
2023-09-24T06:08:55.127Z,14.32
2023-09-24T06:11:21.659Z,14.62
2023-09-24T06:13:48.467Z,14.91
2023-09-24T06:16:16.590Z,15.31
2023-09-24T06:18:43.108Z,15.61
2023-09-24T06:21:14.628Z,15.85
2023-09-24T06:23:41.110Z,16.00
2023-09-24T06:26:07.705Z,16.22
2023-09-24T06:28:34.187Z,16.48
2023-09-24T06:31:01.287Z,16.78
2023-09-24T06:33:29.271Z,17.06
2023-09-24T06:35:56.082Z,17.20
2023-09-24T06:38:23.116Z,17.12
2023-09-24T06:40:56.813Z,17.38
2023-09-24T06:43:23.340Z,17.53
2023-09-24T06:45:49.857Z,17.74
2023-09-24T06:48:21.601Z,17.77
2023-09-24T06:50:49.785Z,17.74
2023-09-24T06:53:16.414Z,17.93
2023-09-24T06:55:43.308Z,18.15
2023-09-24T06:58:09.857Z,18.27
2023-09-24T07:00:36.446Z,18.51
2023-09-24T07:03:03.401Z,18.62
2023-09-24T07:05:29.997Z,18.67
2023-09-24T07:07:57.792Z,18.93
2023-09-24T07:10:24.606Z,19.10
2023-09-24T07:12:52.390Z,19.07
2023-09-24T07:15:18.899Z,19.41
2023-09-24T07:17:45.395Z,19.48
2023-09-24T07:20:13.205Z,19.56
2023-09-24T07:22:39.726Z,19.77
2023-09-24T07:25:08.280Z,19.61
2023-09-24T07:27:34.802Z,19.80
2023-09-24T07:30:01.306Z,19.79
2023-09-24T07:32:27.958Z,20.02
2023-09-24T07:34:54.458Z,20.27
2023-09-24T07:37:20.930Z,20.41
2023-09-24T07:39:47.399Z,20.40
2023-09-24T07:42:15.192Z,20.65
2023-09-24T07:44:41.732Z,20.69
2023-09-24T07:47:08.550Z,20.88
2023-09-24T07:49:35.001Z,20.92
2023-09-24T07:52:01.525Z,20.89
2023-09-24T07:54:27.967Z,21.29
2023-09-24T07:56:54.466Z,21.41
2023-09-24T07:59:22.306Z,21.60
2023-09-24T08:01:48.704Z,21.58
2023-09-24T08:04:15.154Z,21.37
2023-09-24T08:06:41.557Z,21.35
2023-09-24T08:09:23.190Z,21.52
2023-09-24T08:11:52.280Z,21.46
2023-09-24T08:14:18.828Z,21.61
2023-09-24T08:16:46.627Z,21.64
2023-09-24T08:19:13.379Z,21.83
2023-09-24T08:21:39.804Z,21.97
2023-09-24T08:24:07.038Z,22.06
2023-09-24T08:26:33.655Z,21.96
2023-09-24T08:29:00.435Z,21.87
2023-09-24T08:31:26.985Z,21.68
2023-09-24T08:33:54.853Z,21.92
2023-09-24T08:36:21.537Z,22.16
2023-09-24T08:38:48.107Z,22.00
2023-09-24T08:41:14.623Z,21.99
2023-09-24T08:43:42.838Z,22.17
2023-09-24T08:46:10.146Z,22.17
2023-09-24T08:48:37.972Z,22.27
2023-09-24T08:51:07.963Z,22.07
2023-09-24T08:53:36.033Z,22.10
2023-09-24T08:56:11.622Z,21.97
2023-09-24T08:58:57.632Z,21.94
2023-09-24T09:01:24.251Z,21.90
2023-09-24T09:03:50.940Z,21.59
2023-09-24T09:06:31.392Z,22.00
2023-09-24T09:08:59.730Z,22.12
2023-09-24T09:11:38.997Z,22.06
2023-09-24T09:14:05.786Z,22.10
2023-09-24T09:16:32.368Z,21.97
2023-09-24T09:19:00.518Z,22.04
2023-09-24T09:21:28.450Z,22.22
2023-09-24T09:23:55.516Z,21.75
2023-09-24T09:26:26.344Z,21.79
2023-09-24T09:28:52.837Z,21.80
2023-09-24T09:31:19.313Z,21.78
2023-09-24T09:33:46.368Z,21.66
2023-09-24T09:36:23.070Z,21.76
2023-09-24T09:38:51.564Z,21.40
2023-09-24T09:41:19.502Z,21.57
2023-09-24T09:43:47.246Z,21.65
2023-09-24T09:46:18.458Z,21.76
2023-09-24T09:48:51.696Z,21.43
2023-09-24T09:51:20.762Z,21.65
2023-09-24T09:53:48.171Z,21.35
2023-09-24T09:56:16.789Z,21.42
2023-09-24T09:58:44.418Z,21.16
2023-09-24T10:01:10.925Z,21.22
2023-09-24T10:03:40.453Z,20.99
2023-09-24T10:06:09.433Z,21.28
2023-09-24T10:08:41.223Z,21.65
2023-09-24T10:11:09.186Z,21.48
2023-09-24T10:13:47.662Z,21.76
2023-09-24T10:16:34.886Z,21.53
2023-09-24T10:19:02.693Z,21.68
2023-09-24T10:21:30.167Z,21.74
2023-09-24T10:23:57.520Z,21.64
2023-09-24T10:26:47.214Z,21.55
2023-09-24T10:29:16.302Z,21.69
2023-09-24T10:32:13.694Z,21.74
2023-09-24T10:35:08.300Z,21.54
2023-09-24T10:37:35.199Z,21.85
2023-09-24T10:40:06.285Z,22.00
2023-09-24T10:42:34.448Z,21.82
2023-09-24T10:45:26.335Z,21.56
2023-09-24T10:47:52.820Z,21.46
2023-09-24T10:50:20.945Z,21.52
2023-09-24T10:52:48.721Z,21.48
2023-09-24T10:55:18.831Z,21.61
2023-09-24T10:57:45.707Z,21.64
2023-09-24T11:00:16.860Z,21.58
2023-09-24T11:02:46.521Z,21.34
2023-09-24T11:05:13.241Z,21.34
2023-09-24T11:07:39.656Z,21.47
2023-09-24T11:10:06.890Z,21.49
2023-09-24T11:12:33.356Z,21.59
2023-09-24T11:15:15.016Z,21.70
2023-09-24T11:17:42.402Z,21.71
2023-09-24T11:20:10.631Z,21.78
2023-09-24T11:22:37.216Z,21.41
2023-09-24T11:25:10.967Z,21.52
2023-09-24T11:27:45.742Z,21.95
2023-09-24T11:30:12.858Z,21.69
2023-09-24T11:32:39.484Z,21.50
2023-09-24T11:35:07.335Z,21.55
2023-09-24T11:37:49.540Z,21.38
2023-09-24T11:40:27.061Z,21.25
2023-09-24T11:42:54.800Z,21.46
2023-09-24T11:45:41.976Z,21.70
2023-09-24T11:48:09.730Z,21.85
2023-09-24T11:50:36.383Z,21.97
2023-09-24T11:53:04.547Z,21.92
2023-09-24T11:55:31.489Z,21.83
2023-09-24T11:57:57.934Z,21.61
2023-09-24T12:00:25.169Z,21.57
2023-09-24T12:02:51.804Z,21.79
2023-09-24T12:05:32.409Z,21.59
2023-09-24T12:08:00.687Z,21.80
2023-09-24T12:10:28.622Z,22.02
2023-09-24T12:12:55.479Z,21.70
2023-09-24T12:15:21.997Z,21.48
2023-09-24T12:17:48.471Z,21.56
2023-09-24T12:20:15.286Z,21.72
2023-09-24T12:22:42.823Z,21.70
2023-09-24T12:25:09.926Z,21.99
2023-09-24T12:27:38.072Z,21.98
2023-09-24T12:30:05.905Z,22.17
2023-09-24T12:32:32.595Z,22.31
2023-09-24T12:34:59.477Z,22.46
2023-09-24T12:37:28.690Z,22.65
2023-09-24T12:39:57.661Z,22.12
2023-09-24T12:42:24.089Z,22.25
2023-09-24T12:44:52.008Z,22.22
2023-09-24T12:47:18.462Z,22.05
2023-09-24T12:49:45.002Z,22.14
2023-09-24T12:52:11.446Z,22.24
2023-09-24T12:54:37.831Z,22.36
2023-09-24T12:57:04.327Z,22.56
2023-09-24T12:59:30.771Z,22.63
2023-09-24T13:01:58.561Z,22.59
2023-09-24T13:04:25.195Z,22.76
2023-09-24T13:06:51.964Z,22.83
2023-09-24T13:09:18.450Z,22.85
2023-09-24T13:11:45.458Z,22.22
2023-09-24T13:14:12.943Z,22.29
2023-09-24T13:16:39.647Z,22.12
2023-09-24T13:19:07.613Z,22.38
2023-09-24T13:21:34.123Z,22.52
2023-09-24T13:24:00.558Z,22.45
2023-09-24T13:26:26.965Z,22.47
2023-09-24T13:28:53.422Z,22.50
2023-09-24T13:31:19.937Z,22.36
2023-09-24T13:33:46.633Z,22.44
2023-09-24T13:36:14.575Z,22.32
2023-09-24T13:38:41.222Z,22.48
2023-09-24T13:41:11.008Z,22.55
2023-09-24T13:43:37.535Z,22.69
2023-09-24T13:46:04.435Z,22.63
2023-09-24T13:48:31.103Z,22.79
2023-09-24T13:50:57.836Z,22.73
2023-09-24T13:53:25.630Z,22.37
2023-09-24T13:55:52.410Z,22.63
2023-09-24T13:58:19.121Z,22.48
2023-09-24T14:00:46.127Z,22.54
2023-09-24T14:03:12.653Z,22.18
2023-09-24T14:05:39.173Z,22.60
2023-09-24T14:08:05.726Z,22.78
2023-09-24T14:10:40.030Z,22.59
2023-09-24T14:13:06.497Z,22.75
2023-09-24T14:15:35.211Z,22.51
2023-09-24T14:18:13.902Z,22.77
2023-09-24T14:20:41.570Z,22.42
2023-09-24T14:23:08.102Z,22.66
2023-09-24T14:25:39.835Z,22.72
2023-09-24T14:28:06.679Z,22.58
2023-09-24T14:30:35.817Z,22.34
2023-09-24T14:33:02.372Z,22.27
2023-09-24T14:35:28.936Z,22.36
2023-09-24T14:37:55.388Z,22.39
2023-09-24T14:40:21.937Z,22.20
2023-09-24T14:42:50.138Z,22.35
2023-09-24T14:45:16.636Z,22.45
2023-09-24T14:47:43.948Z,22.31
2023-09-24T14:50:10.510Z,22.13
2023-09-24T14:52:36.924Z,22.15
2023-09-24T14:55:03.815Z,22.05
2023-09-24T14:57:30.251Z,22.02
2023-09-24T14:59:58.169Z,22.17
2023-09-24T15:02:24.699Z,21.99
2023-09-24T15:04:51.442Z,22.10
2023-09-24T15:07:17.872Z,22.12
2023-09-24T15:09:44.823Z,22.10
2023-09-24T15:12:11.549Z,22.13
2023-09-24T15:14:37.966Z,22.00
2023-09-24T15:17:05.719Z,22.10
2023-09-24T15:19:32.159Z,21.87
2023-09-24T15:21:58.534Z,21.90
2023-09-24T15:24:25.005Z,21.86
2023-09-24T15:26:51.478Z,21.91
2023-09-24T15:29:17.909Z,21.96
2023-09-24T15:31:44.435Z,21.90
2023-09-24T15:34:12.229Z,21.92
2023-09-24T15:36:38.703Z,21.84
2023-09-24T15:39:05.346Z,21.90
2023-09-24T15:41:31.807Z,21.81
2023-09-24T15:43:58.268Z,21.67
2023-09-24T15:46:24.671Z,21.63
2023-09-24T15:48:51.134Z,21.67
2023-09-24T15:51:20.804Z,21.70
2023-09-24T15:53:48.941Z,21.74
2023-09-24T15:56:15.706Z,21.66
2023-09-24T15:58:42.269Z,21.68
2023-09-24T16:01:08.855Z,21.50
2023-09-24T16:03:35.532Z,21.59
2023-09-24T16:06:02.149Z,21.44
2023-09-24T16:08:30.247Z,21.45
2023-09-24T16:10:56.746Z,21.58
2023-09-24T16:13:23.279Z,21.60
2023-09-24T16:15:49.720Z,21.42
2023-09-24T16:18:16.288Z,21.52
2023-09-24T16:20:43.799Z,21.56
2023-09-24T16:23:11.460Z,21.48
2023-09-24T16:25:39.233Z,21.48
2023-09-24T16:28:06.028Z,21.28
2023-09-24T16:30:32.462Z,21.30
2023-09-24T16:32:58.968Z,21.33
2023-09-24T16:35:25.592Z,21.20
2023-09-24T16:37:51.997Z,21.22
2023-09-24T16:40:18.818Z,21.04
2023-09-24T16:42:46.576Z,21.06
2023-09-24T16:45:13.018Z,20.93
2023-09-24T16:47:39.528Z,20.87
2023-09-24T16:50:06.835Z,20.78
2023-09-24T16:52:33.312Z,20.89
2023-09-24T16:54:59.729Z,20.81
2023-09-24T16:57:26.194Z,20.63
2023-09-24T16:59:54.230Z,20.59
2023-09-24T17:02:20.704Z,20.61
2023-09-24T17:04:47.242Z,20.52
2023-09-24T17:07:13.934Z,20.49
2023-09-24T17:10:08.402Z,20.38
2023-09-24T17:12:36.283Z,20.32
2023-09-24T17:15:07.871Z,20.24
2023-09-24T17:17:35.128Z,20.05
2023-09-24T17:20:07.702Z,20.09
2023-09-24T17:22:34.696Z,19.99
2023-09-24T17:25:01.668Z,19.96
2023-09-24T17:27:28.848Z,19.89
2023-09-24T17:29:57.543Z,19.79
2023-09-24T17:32:31.457Z,19.70
2023-09-24T17:35:01.394Z,19.52
2023-09-24T17:37:36.724Z,19.54
2023-09-24T17:40:08.599Z,19.54
2023-09-24T17:42:41.432Z,19.43
2023-09-24T17:45:17.545Z,19.33
2023-09-24T17:47:45.645Z,19.31
2023-09-24T17:50:16.810Z,19.32
2023-09-24T17:52:46.654Z,19.19
2023-09-24T17:55:17.209Z,19.10
2023-09-24T17:57:43.870Z,19.07
2023-09-24T18:00:25.017Z,19.06
2023-09-24T18:02:57.964Z,18.94
2023-09-24T18:05:27.863Z,18.92
2023-09-24T18:07:54.481Z,18.87
2023-09-24T18:10:21.049Z,18.82
2023-09-24T18:12:47.600Z,18.71
2023-09-24T18:15:29.201Z,18.63
2023-09-24T18:18:12.874Z,18.63
2023-09-24T18:20:39.945Z,18.50
2023-09-24T18:23:06.389Z,18.48
2023-09-24T18:25:41.022Z,18.47
2023-09-24T18:28:12.830Z,18.44
2023-09-24T18:30:42.157Z,18.30
2023-09-24T18:33:11.835Z,18.31
2023-09-24T18:35:41.589Z,18.09
2023-09-24T18:38:09.145Z,18.08
2023-09-24T18:40:36.707Z,18.06
2023-09-24T18:43:09.080Z,18.08
2023-09-24T18:45:36.357Z,17.99
2023-09-24T18:48:03.253Z,18.01
2023-09-24T18:50:29.984Z,18.01
2023-09-24T18:52:57.788Z,17.91
2023-09-24T18:55:24.359Z,17.94
2023-09-24T18:57:50.835Z,18.02
2023-09-24T19:00:17.482Z,17.88
2023-09-24T19:02:44.251Z,18.02
2023-09-24T19:05:11.671Z,17.95
2023-09-24T19:07:38.547Z,17.91
2023-09-24T19:10:10.073Z,17.91
2023-09-24T19:12:36.542Z,17.78
2023-09-24T19:15:03.335Z,17.69
2023-09-24T19:17:30.042Z,17.84
2023-09-24T19:19:56.600Z,17.74
2023-09-24T19:22:25.129Z,17.74
2023-09-24T19:24:52.591Z,17.70
2023-09-24T19:27:20.687Z,17.64
2023-09-24T19:29:47.320Z,17.69
2023-09-24T19:32:13.962Z,17.82
2023-09-24T19:34:40.551Z,17.73
2023-09-24T19:37:07.461Z,17.72
2023-09-24T19:39:34.061Z,17.59
2023-09-24T19:42:00.969Z,17.70
2023-09-24T19:44:29.231Z,17.54
2023-09-24T19:46:55.898Z,17.56
2023-09-24T19:49:31.640Z,17.59
2023-09-24T19:51:58.222Z,17.53
2023-09-24T19:54:27.001Z,17.38
2023-09-24T19:56:53.666Z,17.46
2023-09-24T19:59:20.315Z,17.46
2023-09-24T20:01:48.256Z,17.51
2023-09-24T20:04:17.670Z,17.50
2023-09-24T20:06:44.240Z,17.35
2023-09-24T20:09:14.122Z,17.22
2023-09-24T20:11:43.630Z,17.35
2023-09-24T20:14:10.327Z,17.34
2023-09-24T20:16:37.057Z,17.36
2023-09-24T20:19:05.136Z,17.29
2023-09-24T20:21:32.345Z,17.05
2023-09-24T20:23:59.178Z,17.28
2023-09-24T20:26:25.701Z,17.26
2023-09-24T20:28:52.301Z,17.29
2023-09-24T20:31:20.934Z,17.19
2023-09-24T20:34:00.053Z,17.17
2023-09-24T20:36:29.210Z,17.18
2023-09-24T20:39:01.662Z,17.18
2023-09-24T20:41:28.771Z,17.17
2023-09-24T20:43:55.703Z,17.07
2023-09-24T20:46:23.747Z,17.04
2023-09-24T20:48:50.535Z,17.05
2023-09-24T20:51:17.330Z,17.02
2023-09-24T20:53:45.477Z,16.95
2023-09-24T20:56:15.190Z,17.12
2023-09-24T20:58:43.498Z,17.06
2023-09-24T21:01:10.149Z,16.98
2023-09-24T21:03:37.700Z,16.95
2023-09-24T21:06:04.791Z,16.93
2023-09-24T21:08:31.313Z,17.06
2023-09-24T21:10:59.324Z,17.05
2023-09-24T21:13:25.972Z,16.88
2023-09-24T21:15:52.593Z,16.95
2023-09-24T21:18:19.292Z,16.91
2023-09-24T21:20:47.859Z,16.81
2023-09-24T21:23:17.145Z,16.83
2023-09-24T21:25:43.819Z,16.85
2023-09-24T21:28:11.848Z,16.78
2023-09-24T21:30:38.622Z,16.82
2023-09-24T21:33:05.779Z,16.80
2023-09-24T21:35:32.479Z,16.67
2023-09-24T21:37:59.147Z,16.78
2023-09-24T21:40:25.651Z,16.73
2023-09-24T21:42:52.496Z,16.63
2023-09-24T21:45:21.116Z,16.80
2023-09-24T21:47:47.722Z,16.77
2023-09-24T21:50:15.195Z,16.76
2023-09-24T21:52:41.991Z,16.77
2023-09-24T21:55:10.000Z,16.64
2023-09-24T21:57:36.530Z,16.69
2023-09-24T22:00:03.504Z,16.57
2023-09-24T22:02:32.214Z,16.60
2023-09-24T22:04:59.021Z,16.52
2023-09-24T22:07:28.742Z,16.49
2023-09-24T22:09:55.770Z,16.44
2023-09-24T22:12:22.647Z,16.51
2023-09-24T22:14:49.134Z,16.48
2023-09-24T22:17:15.695Z,16.55
2023-09-24T22:19:57.180Z,16.37
2023-09-24T22:22:24.126Z,16.41
2023-09-24T22:24:51.186Z,16.45
2023-09-24T22:27:18.217Z,16.48
2023-09-24T22:29:46.694Z,16.38
2023-09-24T22:32:13.479Z,16.38
2023-09-24T22:35:01.124Z,16.37
2023-09-24T22:37:27.835Z,16.35
2023-09-24T22:39:54.375Z,16.32
2023-09-24T22:42:22.403Z,16.24
2023-09-24T22:44:49.165Z,16.25
2023-09-24T22:47:15.730Z,16.16
2023-09-24T22:49:43.218Z,16.35
2023-09-24T22:52:11.680Z,16.34
2023-09-24T22:54:38.377Z,16.30
2023-09-24T22:57:05.246Z,16.23
2023-09-24T22:59:31.867Z,16.18
2023-09-24T23:01:58.631Z,16.18
2023-09-24T23:04:25.252Z,16.36
2023-09-24T23:06:52.032Z,16.22
2023-09-24T23:09:19.925Z,16.24
2023-09-24T23:11:46.840Z,16.20
2023-09-24T23:14:13.249Z,16.24
2023-09-24T23:16:39.788Z,16.13
2023-09-24T23:19:06.267Z,16.09
2023-09-24T23:21:32.847Z,16.11
2023-09-24T23:23:59.584Z,16.09
2023-09-24T23:26:27.608Z,16.11
2023-09-24T23:28:54.560Z,16.14
2023-09-24T23:31:21.336Z,16.18
2023-09-24T23:33:47.820Z,16.16
2023-09-24T23:36:14.464Z,16.20
2023-09-24T23:38:40.872Z,16.04
2023-09-24T23:41:07.515Z,16.11
2023-09-24T23:43:35.418Z,16.07
2023-09-24T23:46:02.221Z,16.04
2023-09-24T23:48:28.771Z,16.07
2023-09-24T23:50:55.280Z,15.98
2023-09-24T23:53:21.679Z,16.04
2023-09-24T23:55:50.622Z,16.06
2023-09-24T23:58:17.108Z,16.04
